sensor_id;sensor_type;location;lat;lon;timestamp;temperature;humidity
4052;DHT22;2040;50.924;11.604;2022-08-21T00:02:34;17.10;99.90
4052;DHT22;2040;50.924;11.604;2022-08-21T00:04:59;17.00;99.90
4052;DHT22;2040;50.924;11.604;2022-08-21T00:07:25;17.10;99.90
4052;DHT22;2040;50.924;11.604;2022-08-21T00:09:52;17.10;99.90
4052;DHT22;2040;50.924;11.604;2022-08-21T00:12:18;17.10;99.90
4052;DHT22;2040;50.924;11.604;2022-08-21T00:14:44;17.10;99.90
4052;DHT22;2040;50.924;11.604;2022-08-21T00:17:10;17.00;99.90
4052;DHT22;2040;50.924;11.604;2022-08-21T00:19:35;17.10;99.90
4052;DHT22;2040;50.924;11.604;2022-08-21T00:22:01;17.10;99.90
4052;DHT22;2040;50.924;11.604;2022-08-21T00:24:26;17.10;99.90
4052;DHT22;2040;50.924;11.604;2022-08-21T00:26:53;17.10;99.90
4052;DHT22;2040;50.924;11.604;2022-08-21T00:29:18;17.10;99.90
4052;DHT22;2040;50.924;11.604;2022-08-21T00:31:44;17.10;99.90
4052;DHT22;2040;50.924;11.604;2022-08-21T00:34:10;17.00;99.90
4052;DHT22;2040;50.924;11.604;2022-08-21T00:36:36;16.90;99.90
4052;DHT22;2040;50.924;11.604;2022-08-21T00:39:05;16.90;99.90
4052;DHT22;2040;50.924;11.604;2022-08-21T00:41:30;16.90;99.90
4052;DHT22;2040;50.924;11.604;2022-08-21T00:43:56;16.80;99.90
4052;DHT22;2040;50.924;11.604;2022-08-21T00:46:22;16.80;99.90
4052;DHT22;2040;50.924;11.604;2022-08-21T00:48:48;16.70;99.90
4052;DHT22;2040;50.924;11.604;2022-08-21T00:51:17;16.70;99.90
4052;DHT22;2040;50.924;11.604;2022-08-21T00:53:50;16.70;99.90
4052;DHT22;2040;50.924;11.604;2022-08-21T00:56:18;16.60;99.90
4052;DHT22;2040;50.924;11.604;2022-08-21T00:58:44;16.50;99.90
4052;DHT22;2040;50.924;11.604;2022-08-21T01:01:11;16.80;99.90
4052;DHT22;2040;50.924;11.604;2022-08-21T01:03:37;16.80;99.90
4052;DHT22;2040;50.924;11.604;2022-08-21T01:06:04;16.70;99.90
4052;DHT22;2040;50.924;11.604;2022-08-21T01:08:30;16.50;99.90
4052;DHT22;2040;50.924;11.604;2022-08-21T01:10:56;16.50;99.90
4052;DHT22;2040;50.924;11.604;2022-08-21T01:13:23;16.40;99.90
4052;DHT22;2040;50.924;11.604;2022-08-21T01:15:50;16.40;99.90
4052;DHT22;2040;50.924;11.604;2022-08-21T01:18:19;16.40;99.90
4052;DHT22;2040;50.924;11.604;2022-08-21T01:24:00;16.30;99.90
4052;DHT22;2040;50.924;11.604;2022-08-21T01:26:29;16.30;99.90
4052;DHT22;2040;50.924;11.604;2022-08-21T01:29:07;16.30;99.90
4052;DHT22;2040;50.924;11.604;2022-08-21T01:31:38;16.20;99.90
4052;DHT22;2040;50.924;11.604;2022-08-21T01:34:05;16.20;99.90
4052;DHT22;2040;50.924;11.604;2022-08-21T01:36:31;16.20;99.90
4052;DHT22;2040;50.924;11.604;2022-08-21T01:38:57;16.20;99.90
4052;DHT22;2040;50.924;11.604;2022-08-21T01:41:23;16.30;99.90
4052;DHT22;2040;50.924;11.604;2022-08-21T01:43:48;16.30;99.90
4052;DHT22;2040;50.924;11.604;2022-08-21T01:46:15;16.30;99.90
4052;DHT22;2040;50.924;11.604;2022-08-21T01:48:41;16.30;99.90
4052;DHT22;2040;50.924;11.604;2022-08-21T01:51:07;16.30;99.90
4052;DHT22;2040;50.924;11.604;2022-08-21T01:53:34;16.30;99.90
4052;DHT22;2040;50.924;11.604;2022-08-21T01:56:02;16.20;99.90
4052;DHT22;2040;50.924;11.604;2022-08-21T01:58:28;16.10;99.90
4052;DHT22;2040;50.924;11.604;2022-08-21T02:00:53;16.20;99.90
4052;DHT22;2040;50.924;11.604;2022-08-21T02:03:19;16.20;99.90
4052;DHT22;2040;50.924;11.604;2022-08-21T02:05:45;16.20;99.90
4052;DHT22;2040;50.924;11.604;2022-08-21T02:08:11;16.20;99.90
4052;DHT22;2040;50.924;11.604;2022-08-21T02:10:36;16.10;99.90
4052;DHT22;2040;50.924;11.604;2022-08-21T02:13:03;16.30;99.90
4052;DHT22;2040;50.924;11.604;2022-08-21T02:15:29;16.20;99.90
4052;DHT22;2040;50.924;11.604;2022-08-21T02:17:57;16.20;99.90
4052;DHT22;2040;50.924;11.604;2022-08-21T02:20:33;16.30;99.90
4052;DHT22;2040;50.924;11.604;2022-08-21T02:22:59;16.10;99.90
4052;DHT22;2040;50.924;11.604;2022-08-21T02:25:26;16.10;99.90
4052;DHT22;2040;50.924;11.604;2022-08-21T02:27:53;16.10;99.90
4052;DHT22;2040;50.924;11.604;2022-08-21T02:30:29;16.00;99.90
4052;DHT22;2040;50.924;11.604;2022-08-21T02:32:55;16.00;99.90
4052;DHT22;2040;50.924;11.604;2022-08-21T02:35:21;15.90;99.90
4052;DHT22;2040;50.924;11.604;2022-08-21T02:38:08;16.10;99.90
4052;DHT22;2040;50.924;11.604;2022-08-21T02:40:36;16.40;99.90
4052;DHT22;2040;50.924;11.604;2022-08-21T02:43:04;16.40;99.90
4052;DHT22;2040;50.924;11.604;2022-08-21T02:45:30;16.40;99.90
4052;DHT22;2040;50.924;11.604;2022-08-21T02:47:59;16.30;99.90
4052;DHT22;2040;50.924;11.604;2022-08-21T02:50:28;16.10;99.90
4052;DHT22;2040;50.924;11.604;2022-08-21T02:52:55;16.00;99.90
4052;DHT22;2040;50.924;11.604;2022-08-21T02:55:25;15.90;99.90
4052;DHT22;2040;50.924;11.604;2022-08-21T02:57:53;15.80;99.90
4052;DHT22;2040;50.924;11.604;2022-08-21T03:00:20;15.80;99.90
4052;DHT22;2040;50.924;11.604;2022-08-21T03:02:46;15.80;99.90
4052;DHT22;2040;50.924;11.604;2022-08-21T03:05:13;16.00;99.90
4052;DHT22;2040;50.924;11.604;2022-08-21T03:07:41;16.10;99.90
4052;DHT22;2040;50.924;11.604;2022-08-21T03:10:08;16.20;99.90
4052;DHT22;2040;50.924;11.604;2022-08-21T03:12:34;16.00;99.90
4052;DHT22;2040;50.924;11.604;2022-08-21T03:15:06;16.00;99.90
4052;DHT22;2040;50.924;11.604;2022-08-21T03:17:32;15.80;99.90
4052;DHT22;2040;50.924;11.604;2022-08-21T03:19:58;15.90;99.90
4052;DHT22;2040;50.924;11.604;2022-08-21T03:22:24;15.90;99.90
4052;DHT22;2040;50.924;11.604;2022-08-21T03:24:49;15.90;99.90
4052;DHT22;2040;50.924;11.604;2022-08-21T03:27:15;15.80;99.90
4052;DHT22;2040;50.924;11.604;2022-08-21T03:29:41;15.70;99.90
4052;DHT22;2040;50.924;11.604;2022-08-21T03:32:07;15.70;99.90
4052;DHT22;2040;50.924;11.604;2022-08-21T03:34:35;15.70;99.90
4052;DHT22;2040;50.924;11.604;2022-08-21T03:37:02;15.70;99.90
4052;DHT22;2040;50.924;11.604;2022-08-21T03:39:28;15.70;99.90
4052;DHT22;2040;50.924;11.604;2022-08-21T03:41:54;15.60;99.90
4052;DHT22;2040;50.924;11.604;2022-08-21T03:44:20;15.60;99.90
4052;DHT22;2040;50.924;11.604;2022-08-21T03:46:45;15.50;99.90
4052;DHT22;2040;50.924;11.604;2022-08-21T03:49:11;15.50;99.90
4052;DHT22;2040;50.924;11.604;2022-08-21T03:51:37;15.60;99.90
4052;DHT22;2040;50.924;11.604;2022-08-21T03:54:03;15.60;99.90
4052;DHT22;2040;50.924;11.604;2022-08-21T03:56:28;15.60;99.90
4052;DHT22;2040;50.924;11.604;2022-08-21T03:58:54;15.60;99.90
4052;DHT22;2040;50.924;11.604;2022-08-21T04:01:20;15.70;99.90
4052;DHT22;2040;50.924;11.604;2022-08-21T04:03:46;15.60;99.90
4052;DHT22;2040;50.924;11.604;2022-08-21T04:06:12;15.50;99.90
4052;DHT22;2040;50.924;11.604;2022-08-21T04:08:37;15.40;99.90
4052;DHT22;2040;50.924;11.604;2022-08-21T04:11:03;15.50;99.90
4052;DHT22;2040;50.924;11.604;2022-08-21T04:13:29;15.50;99.90
4052;DHT22;2040;50.924;11.604;2022-08-21T04:15:55;15.50;99.90
4052;DHT22;2040;50.924;11.604;2022-08-21T04:18:23;15.60;99.90
4052;DHT22;2040;50.924;11.604;2022-08-21T04:20:50;15.60;99.90
4052;DHT22;2040;50.924;11.604;2022-08-21T04:23:18;15.70;99.90
4052;DHT22;2040;50.924;11.604;2022-08-21T04:25:44;15.70;99.90
4052;DHT22;2040;50.924;11.604;2022-08-21T04:28:09;15.70;99.90
4052;DHT22;2040;50.924;11.604;2022-08-21T04:30:35;15.70;99.90
4052;DHT22;2040;50.924;11.604;2022-08-21T04:33:00;15.80;99.90
4052;DHT22;2040;50.924;11.604;2022-08-21T04:35:27;15.80;99.90
4052;DHT22;2040;50.924;11.604;2022-08-21T04:37:53;15.80;99.90
4052;DHT22;2040;50.924;11.604;2022-08-21T04:40:20;15.80;99.90
4052;DHT22;2040;50.924;11.604;2022-08-21T04:42:49;15.90;99.90
4052;DHT22;2040;50.924;11.604;2022-08-21T04:45:36;15.90;99.90
4052;DHT22;2040;50.924;11.604;2022-08-21T04:48:05;15.90;99.90
4052;DHT22;2040;50.924;11.604;2022-08-21T04:53:49;15.90;99.90
4052;DHT22;2040;50.924;11.604;2022-08-21T04:56:15;15.90;99.90
4052;DHT22;2040;50.924;11.604;2022-08-21T04:58:45;16.00;99.90
4052;DHT22;2040;50.924;11.604;2022-08-21T05:01:15;16.10;99.90
4052;DHT22;2040;50.924;11.604;2022-08-21T05:03:42;16.20;99.90
4052;DHT22;2040;50.924;11.604;2022-08-21T05:06:10;16.10;99.90
4052;DHT22;2040;50.924;11.604;2022-08-21T05:08:38;16.10;99.90
4052;DHT22;2040;50.924;11.604;2022-08-21T05:11:04;16.10;99.90
4052;DHT22;2040;50.924;11.604;2022-08-21T05:13:31;16.00;99.90
4052;DHT22;2040;50.924;11.604;2022-08-21T05:15:57;16.00;99.90
4052;DHT22;2040;50.924;11.604;2022-08-21T05:18:23;16.00;99.90
4052;DHT22;2040;50.924;11.604;2022-08-21T05:20:49;16.10;99.90
4052;DHT22;2040;50.924;11.604;2022-08-21T05:23:16;16.20;99.90
4052;DHT22;2040;50.924;11.604;2022-08-21T05:25:42;16.20;99.90
4052;DHT22;2040;50.924;11.604;2022-08-21T05:28:09;16.30;99.90
4052;DHT22;2040;50.924;11.604;2022-08-21T05:30:36;16.30;99.90
4052;DHT22;2040;50.924;11.604;2022-08-21T05:33:03;16.30;99.90
4052;DHT22;2040;50.924;11.604;2022-08-21T05:35:30;16.40;99.90
4052;DHT22;2040;50.924;11.604;2022-08-21T05:37:56;16.40;99.90
4052;DHT22;2040;50.924;11.604;2022-08-21T05:40:23;16.40;99.90
4052;DHT22;2040;50.924;11.604;2022-08-21T05:42:53;16.40;99.90
4052;DHT22;2040;50.924;11.604;2022-08-21T05:45:19;16.40;99.90
4052;DHT22;2040;50.924;11.604;2022-08-21T05:47:45;16.50;99.90
4052;DHT22;2040;50.924;11.604;2022-08-21T05:50:10;16.50;99.90
4052;DHT22;2040;50.924;11.604;2022-08-21T05:52:36;16.50;99.90
4052;DHT22;2040;50.924;11.604;2022-08-21T05:55:03;16.50;99.90
4052;DHT22;2040;50.924;11.604;2022-08-21T05:57:28;16.50;99.90
4052;DHT22;2040;50.924;11.604;2022-08-21T05:59:54;16.50;99.90
4052;DHT22;2040;50.924;11.604;2022-08-21T06:02:21;16.50;99.90
4052;DHT22;2040;50.924;11.604;2022-08-21T06:04:47;16.50;99.90
4052;DHT22;2040;50.924;11.604;2022-08-21T06:07:13;16.50;99.90
4052;DHT22;2040;50.924;11.604;2022-08-21T06:09:39;16.50;99.90
4052;DHT22;2040;50.924;11.604;2022-08-21T06:12:06;16.50;99.90
4052;DHT22;2040;50.924;11.604;2022-08-21T06:14:34;16.50;99.90
4052;DHT22;2040;50.924;11.604;2022-08-21T06:17:05;16.50;99.90
4052;DHT22;2040;50.924;11.604;2022-08-21T06:19:31;16.50;99.90
4052;DHT22;2040;50.924;11.604;2022-08-21T06:21:57;16.60;99.90
4052;DHT22;2040;50.924;11.604;2022-08-21T06:24:22;16.60;99.90
4052;DHT22;2040;50.924;11.604;2022-08-21T06:26:48;16.50;99.90
4052;DHT22;2040;50.924;11.604;2022-08-21T06:29:14;16.40;99.90
4052;DHT22;2040;50.924;11.604;2022-08-21T06:31:42;16.50;99.90
4052;DHT22;2040;50.924;11.604;2022-08-21T06:34:09;16.60;99.90
4052;DHT22;2040;50.924;11.604;2022-08-21T06:36:35;16.70;99.90
4052;DHT22;2040;50.924;11.604;2022-08-21T06:39:01;16.70;99.90
4052;DHT22;2040;50.924;11.604;2022-08-21T06:41:26;16.80;99.90
4052;DHT22;2040;50.924;11.604;2022-08-21T06:43:52;16.80;99.90
4052;DHT22;2040;50.924;11.604;2022-08-21T06:46:18;16.90;99.90
4052;DHT22;2040;50.924;11.604;2022-08-21T06:48:44;16.90;99.90
4052;DHT22;2040;50.924;11.604;2022-08-21T06:51:11;16.90;99.90
4052;DHT22;2040;50.924;11.604;2022-08-21T06:53:37;17.00;99.90
4052;DHT22;2040;50.924;11.604;2022-08-21T06:56:02;16.90;99.90
4052;DHT22;2040;50.924;11.604;2022-08-21T06:58:28;16.90;99.90
4052;DHT22;2040;50.924;11.604;2022-08-21T07:00:54;16.90;99.90
4052;DHT22;2040;50.924;11.604;2022-08-21T07:03:29;16.90;99.90
4052;DHT22;2040;50.924;11.604;2022-08-21T07:05:55;16.80;99.90
4052;DHT22;2040;50.924;11.604;2022-08-21T07:08:24;17.00;99.90
4052;DHT22;2040;50.924;11.604;2022-08-21T07:10:49;17.10;99.90
4052;DHT22;2040;50.924;11.604;2022-08-21T07:13:16;17.20;99.90
4052;DHT22;2040;50.924;11.604;2022-08-21T07:15:42;17.30;99.90
4052;DHT22;2040;50.924;11.604;2022-08-21T07:18:07;17.30;99.90
4052;DHT22;2040;50.924;11.604;2022-08-21T07:20:33;17.40;99.90
4052;DHT22;2040;50.924;11.604;2022-08-21T07:23:02;17.50;99.90
4052;DHT22;2040;50.924;11.604;2022-08-21T07:25:28;17.60;99.90
4052;DHT22;2040;50.924;11.604;2022-08-21T07:27:54;17.70;99.90
4052;DHT22;2040;50.924;11.604;2022-08-21T07:30:20;17.70;99.90
4052;DHT22;2040;50.924;11.604;2022-08-21T07:32:45;17.80;99.90
4052;DHT22;2040;50.924;11.604;2022-08-21T07:35:12;17.90;99.90
4052;DHT22;2040;50.924;11.604;2022-08-21T07:37:38;17.90;99.90
4052;DHT22;2040;50.924;11.604;2022-08-21T07:40:04;18.00;99.90
4052;DHT22;2040;50.924;11.604;2022-08-21T07:42:30;18.00;99.90
4052;DHT22;2040;50.924;11.604;2022-08-21T07:44:56;18.10;99.90
4052;DHT22;2040;50.924;11.604;2022-08-21T07:47:21;18.10;99.90
4052;DHT22;2040;50.924;11.604;2022-08-21T07:49:47;18.30;99.90
4052;DHT22;2040;50.924;11.604;2022-08-21T07:52:12;18.40;99.90
4052;DHT22;2040;50.924;11.604;2022-08-21T07:54:38;18.30;99.90
4052;DHT22;2040;50.924;11.604;2022-08-21T07:57:03;18.20;99.90
4052;DHT22;2040;50.924;11.604;2022-08-21T07:59:29;18.30;99.90
4052;DHT22;2040;50.924;11.604;2022-08-21T08:01:55;18.40;99.90
4052;DHT22;2040;50.924;11.604;2022-08-21T08:04:21;18.40;99.90
4052;DHT22;2040;50.924;11.604;2022-08-21T08:06:46;18.60;99.90
4052;DHT22;2040;50.924;11.604;2022-08-21T08:09:12;18.60;99.90
4052;DHT22;2040;50.924;11.604;2022-08-21T08:11:39;18.50;99.90
4052;DHT22;2040;50.924;11.604;2022-08-21T08:14:06;18.60;99.90
4052;DHT22;2040;50.924;11.604;2022-08-21T08:16:32;18.70;99.90
4052;DHT22;2040;50.924;11.604;2022-08-21T08:18:57;18.80;99.90
4052;DHT22;2040;50.924;11.604;2022-08-21T08:21:23;18.70;99.90
4052;DHT22;2040;50.924;11.604;2022-08-21T08:23:49;18.80;99.90
4052;DHT22;2040;50.924;11.604;2022-08-21T08:26:15;18.90;99.90
4052;DHT22;2040;50.924;11.604;2022-08-21T08:28:43;18.90;99.90
4052;DHT22;2040;50.924;11.604;2022-08-21T08:31:10;18.90;99.90
4052;DHT22;2040;50.924;11.604;2022-08-21T08:33:35;18.80;99.90
4052;DHT22;2040;50.924;11.604;2022-08-21T08:36:01;18.90;99.90
4052;DHT22;2040;50.924;11.604;2022-08-21T08:38:27;18.80;99.90
4052;DHT22;2040;50.924;11.604;2022-08-21T08:43:21;19.00;99.90
4052;DHT22;2040;50.924;11.604;2022-08-21T08:45:54;19.10;99.90
4052;DHT22;2040;50.924;11.604;2022-08-21T08:51:29;19.00;99.90
4052;DHT22;2040;50.924;11.604;2022-08-21T08:54:03;18.70;99.90
4052;DHT22;2040;50.924;11.604;2022-08-21T08:56:31;18.80;99.90
4052;DHT22;2040;50.924;11.604;2022-08-21T08:59:19;18.80;99.90
4052;DHT22;2040;50.924;11.604;2022-08-21T09:01:45;19.00;99.90
4052;DHT22;2040;50.924;11.604;2022-08-21T09:04:12;18.90;99.90
4052;DHT22;2040;50.924;11.604;2022-08-21T09:06:48;19.10;99.90
4052;DHT22;2040;50.924;11.604;2022-08-21T09:25:43;19.50;99.90
4052;DHT22;2040;50.924;11.604;2022-08-21T09:28:11;19.40;99.90
4052;DHT22;2040;50.924;11.604;2022-08-21T09:30:40;19.50;99.90
4052;DHT22;2040;50.924;11.604;2022-08-21T09:33:07;19.70;99.90
4052;DHT22;2040;50.924;11.604;2022-08-21T09:35:33;19.80;99.90
4052;DHT22;2040;50.924;11.604;2022-08-21T09:38:04;19.90;99.90
4052;DHT22;2040;50.924;11.604;2022-08-21T09:40:40;20.10;99.90
4052;DHT22;2040;50.924;11.604;2022-08-21T09:43:23;20.20;99.90
4052;DHT22;2040;50.924;11.604;2022-08-21T09:46:09;20.30;99.90
4052;DHT22;2040;50.924;11.604;2022-08-21T09:48:44;20.70;99.90
4052;DHT22;2040;50.924;11.604;2022-08-21T09:51:19;20.90;99.90
4052;DHT22;2040;50.924;11.604;2022-08-21T09:53:49;21.10;99.90
4052;DHT22;2040;50.924;11.604;2022-08-21T09:56:31;21.10;99.90
4052;DHT22;2040;50.924;11.604;2022-08-21T09:59:31;21.30;99.90
4052;DHT22;2040;50.924;11.604;2022-08-21T10:02:00;21.40;99.90
4052;DHT22;2040;50.924;11.604;2022-08-21T10:04:36;21.60;99.90
4052;DHT22;2040;50.924;11.604;2022-08-21T10:07:09;21.80;99.90
4052;DHT22;2040;50.924;11.604;2022-08-21T10:09:36;21.90;99.90
4052;DHT22;2040;50.924;11.604;2022-08-21T10:12:22;22.10;99.90
4052;DHT22;2040;50.924;11.604;2022-08-21T10:15:10;22.40;99.90
4052;DHT22;2040;50.924;11.604;2022-08-21T10:23:54;22.20;99.90
4052;DHT22;2040;50.924;11.604;2022-08-21T10:26:35;22.40;99.90
4052;DHT22;2040;50.924;11.604;2022-08-21T10:45:57;22.50;99.90
4052;DHT22;2040;50.924;11.604;2022-08-21T10:48:51;22.70;99.90
4052;DHT22;2040;50.924;11.604;2022-08-21T10:56:43;23.30;99.90
4052;DHT22;2040;50.924;11.604;2022-08-21T10:59:26;23.60;99.90
4052;DHT22;2040;50.924;11.604;2022-08-21T11:02:08;23.80;99.90
4052;DHT22;2040;50.924;11.604;2022-08-21T11:05:01;24.10;99.90
4052;DHT22;2040;50.924;11.604;2022-08-21T11:07:32;24.10;99.90
4052;DHT22;2040;50.924;11.604;2022-08-21T11:10:11;24.20;99.90
4052;DHT22;2040;50.924;11.604;2022-08-21T11:12:46;24.50;99.90
4052;DHT22;2040;50.924;11.604;2022-08-21T11:20:46;24.20;99.90
4052;DHT22;2040;50.924;11.604;2022-08-21T11:23:22;24.20;99.90
4052;DHT22;2040;50.924;11.604;2022-08-21T11:25:57;24.30;99.90
4052;DHT22;2040;50.924;11.604;2022-08-21T11:31:46;24.30;99.90
4052;DHT22;2040;50.924;11.604;2022-08-21T11:40:06;25.00;99.90
4052;DHT22;2040;50.924;11.604;2022-08-21T11:42:54;25.30;99.90
4052;DHT22;2040;50.924;11.604;2022-08-21T11:50:57;25.30;99.90
4052;DHT22;2040;50.924;11.604;2022-08-21T11:53:26;25.50;99.90
4052;DHT22;2040;50.924;11.604;2022-08-21T11:56:11;25.80;99.90
4052;DHT22;2040;50.924;11.604;2022-08-21T11:58:42;25.90;99.90
4052;DHT22;2040;50.924;11.604;2022-08-21T12:01:12;25.60;99.90
4052;DHT22;2040;50.924;11.604;2022-08-21T12:03:44;26.00;99.90
4052;DHT22;2040;50.924;11.604;2022-08-21T12:06:29;25.90;99.90
4052;DHT22;2040;50.924;11.604;2022-08-21T12:12:04;25.90;99.90
4052;DHT22;2040;50.924;11.604;2022-08-21T12:14:46;25.40;99.90
4052;DHT22;2040;50.924;11.604;2022-08-21T12:17:24;25.20;99.90
4052;DHT22;2040;50.924;11.604;2022-08-21T12:20:00;25.00;99.90
4052;DHT22;2040;50.924;11.604;2022-08-21T12:22:40;25.10;99.90
4052;DHT22;2040;50.924;11.604;2022-08-21T12:25:09;25.20;99.90
4052;DHT22;2040;50.924;11.604;2022-08-21T12:27:53;25.00;99.90
4052;DHT22;2040;50.924;11.604;2022-08-21T12:33:01;25.20;99.90
4052;DHT22;2040;50.924;11.604;2022-08-21T12:35:39;25.00;99.90
4052;DHT22;2040;50.924;11.604;2022-08-21T12:38:34;24.90;99.90
4052;DHT22;2040;50.924;11.604;2022-08-21T12:41:09;24.60;99.90
4052;DHT22;2040;50.924;11.604;2022-08-21T12:43:47;24.30;99.90
4052;DHT22;2040;50.924;11.604;2022-08-21T12:46:47;24.70;99.90
4052;DHT22;2040;50.924;11.604;2022-08-21T12:49:26;25.30;99.90
4052;DHT22;2040;50.924;11.604;2022-08-21T12:52:02;25.60;99.90
4052;DHT22;2040;50.924;11.604;2022-08-21T12:54:31;25.90;99.90
4052;DHT22;2040;50.924;11.604;2022-08-21T12:57:03;26.40;99.90
4052;DHT22;2040;50.924;11.604;2022-08-21T12:59:29;26.80;99.90
4052;DHT22;2040;50.924;11.604;2022-08-21T13:01:55;26.90;99.90
4052;DHT22;2040;50.924;11.604;2022-08-21T13:04:42;26.70;99.90
4052;DHT22;2040;50.924;11.604;2022-08-21T13:07:10;27.00;99.90
4052;DHT22;2040;50.924;11.604;2022-08-21T13:09:52;26.80;99.90
4052;DHT22;2040;50.924;11.604;2022-08-21T13:12:20;26.80;99.90
4052;DHT22;2040;50.924;11.604;2022-08-21T13:14:46;27.20;99.90
4052;DHT22;2040;50.924;11.604;2022-08-21T13:17:14;27.60;99.90
4052;DHT22;2040;50.924;11.604;2022-08-21T13:19:42;27.90;99.90
4052;DHT22;2040;50.924;11.604;2022-08-21T13:22:15;28.00;99.90
4052;DHT22;2040;50.924;11.604;2022-08-21T13:24:41;27.70;99.90
4052;DHT22;2040;50.924;11.604;2022-08-21T13:27:19;27.50;99.90
4052;DHT22;2040;50.924;11.604;2022-08-21T13:29:45;27.40;99.90
4052;DHT22;2040;50.924;11.604;2022-08-21T13:32:20;27.70;99.90
4052;DHT22;2040;50.924;11.604;2022-08-21T13:34:47;27.70;99.90
4052;DHT22;2040;50.924;11.604;2022-08-21T13:37:13;27.70;99.90
4052;DHT22;2040;50.924;11.604;2022-08-21T13:39:39;27.90;99.90
4052;DHT22;2040;50.924;11.604;2022-08-21T13:42:10;27.90;99.90
4052;DHT22;2040;50.924;11.604;2022-08-21T13:44:45;27.60;99.90
4052;DHT22;2040;50.924;11.604;2022-08-21T13:47:15;27.80;99.90
4052;DHT22;2040;50.924;11.604;2022-08-21T13:49:46;28.20;99.90
4052;DHT22;2040;50.924;11.604;2022-08-21T13:52:25;27.60;99.90
4052;DHT22;2040;50.924;11.604;2022-08-21T13:55:00;27.00;99.90
4052;DHT22;2040;50.924;11.604;2022-08-21T13:57:31;26.70;99.90
4052;DHT22;2040;50.924;11.604;2022-08-21T14:00:31;26.40;99.90
4052;DHT22;2040;50.924;11.604;2022-08-21T14:03:08;26.20;99.90
4052;DHT22;2040;50.924;11.604;2022-08-21T14:05:42;26.00;99.90
4052;DHT22;2040;50.924;11.604;2022-08-21T14:08:14;25.40;99.90
4052;DHT22;2040;50.924;11.604;2022-08-21T14:10:48;25.50;99.90
4052;DHT22;2040;50.924;11.604;2022-08-21T14:15:57;26.20;99.90
4052;DHT22;2040;50.924;11.604;2022-08-21T14:18:23;26.30;99.90
4052;DHT22;2040;50.924;11.604;2022-08-21T14:20:52;26.50;99.90
4052;DHT22;2040;50.924;11.604;2022-08-21T14:23:28;26.80;99.90
4052;DHT22;2040;50.924;11.604;2022-08-21T14:25:58;26.70;99.90
4052;DHT22;2040;50.924;11.604;2022-08-21T14:28:31;26.30;99.90
4052;DHT22;2040;50.924;11.604;2022-08-21T14:30:58;26.50;99.90
4052;DHT22;2040;50.924;11.604;2022-08-21T14:33:32;26.80;99.90
4052;DHT22;2040;50.924;11.604;2022-08-21T14:35:58;27.10;99.90
4052;DHT22;2040;50.924;11.604;2022-08-21T14:38:26;27.30;99.90
4052;DHT22;2040;50.924;11.604;2022-08-21T14:40:55;27.50;99.90
4052;DHT22;2040;50.924;11.604;2022-08-21T14:43:22;27.70;99.90
4052;DHT22;2040;50.924;11.604;2022-08-21T14:45:48;27.70;99.90
4052;DHT22;2040;50.924;11.604;2022-08-21T14:48:13;27.60;99.90
4052;DHT22;2040;50.924;11.604;2022-08-21T14:50:39;27.50;99.90
4052;DHT22;2040;50.924;11.604;2022-08-21T14:53:05;27.50;99.90
4052;DHT22;2040;50.924;11.604;2022-08-21T14:55:32;27.40;99.90
4052;DHT22;2040;50.924;11.604;2022-08-21T14:58:20;27.60;99.90
4052;DHT22;2040;50.924;11.604;2022-08-21T15:00:47;27.80;99.90
4052;DHT22;2040;50.924;11.604;2022-08-21T15:03:13;27.60;99.90
4052;DHT22;2040;50.924;11.604;2022-08-21T15:05:38;27.30;99.90
4052;DHT22;2040;50.924;11.604;2022-08-21T15:08:04;27.30;99.90
4052;DHT22;2040;50.924;11.604;2022-08-21T15:10:30;27.30;99.90
4052;DHT22;2040;50.924;11.604;2022-08-21T15:12:58;27.30;99.90
4052;DHT22;2040;50.924;11.604;2022-08-21T15:15:23;27.30;99.90
4052;DHT22;2040;50.924;11.604;2022-08-21T15:17:49;27.30;99.90
4052;DHT22;2040;50.924;11.604;2022-08-21T15:20:14;27.60;99.90
4052;DHT22;2040;50.924;11.604;2022-08-21T15:22:40;27.90;99.90
4052;DHT22;2040;50.924;11.604;2022-08-21T15:25:06;27.90;99.90
4052;DHT22;2040;50.924;11.604;2022-08-21T15:27:31;27.90;99.90
4052;DHT22;2040;50.924;11.604;2022-08-21T15:29:57;27.60;99.90
4052;DHT22;2040;50.924;11.604;2022-08-21T15:32:25;27.40;99.90
4052;DHT22;2040;50.924;11.604;2022-08-21T15:34:53;27.30;99.90
4052;DHT22;2040;50.924;11.604;2022-08-21T15:37:19;27.30;99.90
4052;DHT22;2040;50.924;11.604;2022-08-21T15:39:45;27.30;99.90
4052;DHT22;2040;50.924;11.604;2022-08-21T15:42:12;27.30;99.90
4052;DHT22;2040;50.924;11.604;2022-08-21T15:44:41;27.20;99.90
4052;DHT22;2040;50.924;11.604;2022-08-21T15:47:19;27.10;99.90
4052;DHT22;2040;50.924;11.604;2022-08-21T15:49:46;26.90;99.90
4052;DHT22;2040;50.924;11.604;2022-08-21T15:52:17;27.00;99.90
4052;DHT22;2040;50.924;11.604;2022-08-21T15:54:43;26.90;99.90
4052;DHT22;2040;50.924;11.604;2022-08-21T15:57:14;26.80;99.90
4052;DHT22;2040;50.924;11.604;2022-08-21T15:59:45;27.10;99.90
4052;DHT22;2040;50.924;11.604;2022-08-21T16:02:24;26.90;99.90
4052;DHT22;2040;50.924;11.604;2022-08-21T16:04:50;26.90;99.90
4052;DHT22;2040;50.924;11.604;2022-08-21T16:07:16;26.80;99.90
4052;DHT22;2040;50.924;11.604;2022-08-21T16:09:42;26.80;99.90
4052;DHT22;2040;50.924;11.604;2022-08-21T16:12:11;26.70;99.90
4052;DHT22;2040;50.924;11.604;2022-08-21T16:14:38;26.60;99.90
4052;DHT22;2040;50.924;11.604;2022-08-21T16:17:07;26.60;99.90
4052;DHT22;2040;50.924;11.604;2022-08-21T16:19:34;26.60;99.90
4052;DHT22;2040;50.924;11.604;2022-08-21T16:22:01;26.70;99.90
4052;DHT22;2040;50.924;11.604;2022-08-21T16:24:26;26.50;99.90
4052;DHT22;2040;50.924;11.604;2022-08-21T16:26:52;26.30;99.90
4052;DHT22;2040;50.924;11.604;2022-08-21T16:29:18;26.30;99.90
4052;DHT22;2040;50.924;11.604;2022-08-21T16:31:44;26.40;99.90
4052;DHT22;2040;50.924;11.604;2022-08-21T16:34:15;26.40;99.90
4052;DHT22;2040;50.924;11.604;2022-08-21T16:36:41;26.40;99.90
4052;DHT22;2040;50.924;11.604;2022-08-21T16:39:07;26.30;99.90
4052;DHT22;2040;50.924;11.604;2022-08-21T16:41:34;26.20;99.90
4052;DHT22;2040;50.924;11.604;2022-08-21T16:44:01;26.20;99.90
4052;DHT22;2040;50.924;11.604;2022-08-21T16:46:29;26.10;99.90
4052;DHT22;2040;50.924;11.604;2022-08-21T16:48:55;26.10;99.90
4052;DHT22;2040;50.924;11.604;2022-08-21T16:51:20;26.10;99.90
4052;DHT22;2040;50.924;11.604;2022-08-21T16:53:46;26.10;99.90
4052;DHT22;2040;50.924;11.604;2022-08-21T16:56:13;26.10;99.90
4052;DHT22;2040;50.924;11.604;2022-08-21T16:58:41;26.10;99.90
4052;DHT22;2040;50.924;11.604;2022-08-21T17:01:11;26.00;99.90
4052;DHT22;2040;50.924;11.604;2022-08-21T17:03:45;26.10;99.90
4052;DHT22;2040;50.924;11.604;2022-08-21T17:06:12;26.00;99.90
4052;DHT22;2040;50.924;11.604;2022-08-21T17:08:37;25.80;99.90
4052;DHT22;2040;50.924;11.604;2022-08-21T17:11:05;25.70;99.90
4052;DHT22;2040;50.924;11.604;2022-08-21T17:13:32;25.60;99.90
4052;DHT22;2040;50.924;11.604;2022-08-21T17:15:58;25.50;99.90
4052;DHT22;2040;50.924;11.604;2022-08-21T17:18:24;25.40;99.90
4052;DHT22;2040;50.924;11.604;2022-08-21T17:20:50;25.20;99.90
4052;DHT22;2040;50.924;11.604;2022-08-21T17:23:16;25.10;99.90